Time;durP1;ratioP1;P1;durP2;ratioP2;P2;SDS_P1;SDS_P2;PMS_P1;PMS_P2;Temp;Humidity;BMP_temperature;BMP_pressure;BME280_temperature;BME280_humidity;BME280_pressure;Samples;Min_cycle;Max_cycle;Signal;HPM_P1;HPM_P2
2021/12/25 00:08:32;;;;;;;7.88;2.85;;;5.10;99.90;;;;;;20682569;28;20054;-44
2021/12/25 00:18:35;;;;;;;8.07;2.60;;;5.10;99.90;;;;;;20682722;28;20042;-44
2021/12/25 00:28:52;;;;;;;7.20;2.58;;;5.10;99.90;;;;;;20687121;28;20557;-44
2021/12/25 00:38:54;;;;;;;7.13;2.63;;;4.80;99.90;;;;;;20680672;28;20042;-45
2021/12/25 00:48:55;;;;;;;7.85;2.08;;;4.90;99.90;;;;;;20679051;28;20043;-44
2021/12/25 00:58:56;;;;;;;7.28;2.42;;;4.80;99.90;;;;;;20681111;28;20045;-44
2021/12/25 01:08:59;;;;;;;7.80;2.70;;;4.70;99.90;;;;;;20680952;28;20499;-44
2021/12/25 01:49:17;;;;;;;6.25;1.85;;;4.20;99.90;;;;;;20673216;28;20046;-44
2021/12/25 01:59:18;;;;;;;8.15;2.35;;;4.00;99.90;;;;;;20675227;28;20042;-44
2021/12/25 02:09:19;;;;;;;6.10;2.03;;;3.90;99.90;;;;;;20692017;28;20049;-44
2021/12/25 02:19:33;;;;;;;8.55;2.42;;;3.80;99.90;;;;;;20692751;28;20736;-44
2021/12/25 02:29:35;;;;;;;5.22;1.83;;;3.70;99.90;;;;;;20691027;28;20046;-44
2021/12/25 02:39:36;;;;;;;7.53;2.25;;;3.70;99.90;;;;;;20684790;28;20335;-44
2021/12/25 02:49:37;;;;;;;6.70;2.80;;;3.60;99.90;;;;;;20678186;28;20033;-44
2021/12/25 02:59:39;;;;;;;6.30;2.45;;;3.60;99.90;;;;;;20675566;28;20064;-44
2021/12/25 03:09:42;;;;;;;8.07;2.38;;;3.60;99.90;;;;;;20680556;28;20584;-44
2021/12/25 03:19:43;;;;;;;8.50;2.10;;;3.50;99.90;;;;;;20677982;28;20038;-47
2021/12/25 03:29:44;;;;;;;7.93;2.95;;;3.40;99.90;;;;;;20683470;28;20811;-44
2021/12/25 03:39:45;;;;;;;9.65;3.00;;;3.30;99.90;;;;;;20687516;28;20049;-44
2021/12/25 04:00:08;;;;;;;11.15;3.25;;;3.20;99.90;;;;;;20684255;28;20057;-44
2021/12/25 04:10:18;;;;;;;9.35;2.97;;;3.20;99.90;;;;;;20675157;28;20049;-44
2021/12/25 04:20:20;;;;;;;11.52;2.80;;;3.10;99.90;;;;;;20680557;28;20029;-44
2021/12/25 04:31:22;;;;;;;9.40;3.47;;;3.10;99.90;;;;;;20680170;28;20096;-44
2021/12/25 05:01:50;;;;;;;8.10;2.10;;;2.80;99.90;;;;;;20680035;28;20116;-44
2021/12/25 05:11:51;;;;;;;6.15;2.13;;;2.80;99.90;;;;;;20683040;28;20038;-43
2021/12/25 05:21:52;;;;;;;5.05;1.73;;;2.60;99.90;;;;;;20668780;28;20030;-43
2021/12/25 05:31:54;;;;;;;16.60;2.20;;;2.60;99.90;;;;;;20655601;28;20041;-45
2021/12/25 05:41:56;;;;;;;3.60;1.45;;;2.60;99.90;;;;;;20664387;28;20088;-44
2021/12/25 05:51:58;;;;;;;2.60;0.95;;;2.30;99.90;;;;;;20664478;28;20038;-44
2021/12/25 06:01:59;;;;;;;7.28;0.90;;;2.10;99.90;;;;;;20663932;28;20097;-44
2021/12/25 06:12:01;;;;;;;7.43;0.47;;;1.80;99.90;;;;;;20670147;28;20054;-43
2021/12/25 06:22:02;;;;;;;2.08;0.57;;;1.80;99.90;;;;;;20668449;28;20332;-44
2021/12/25 06:32:03;;;;;;;7.97;0.50;;;1.70;99.90;;;;;;20648909;28;20296;-43
2021/12/25 06:42:05;;;;;;;4.10;1.00;;;1.50;99.90;;;;;;20657992;28;20045;-43
2021/12/25 06:52:06;;;;;;;0.57;0.28;;;1.40;99.90;;;;;;20663671;28;20529;-44
2021/12/25 07:02:08;;;;;;;0.57;0.25;;;1.20;99.90;;;;;;20672153;28;20037;-43
2021/12/25 07:12:09;;;;;;;0.57;0.40;;;1.10;99.90;;;;;;20677853;28;20123;-44
2021/12/25 07:22:13;;;;;;;3.00;2.00;;;1.00;99.90;;;;;;20669832;28;20115;-43
2021/12/25 07:32:14;;;;;;;1.20;0.47;;;0.90;99.90;;;;;;20681308;28;20517;-43
2021/12/25 07:42:16;;;;;;;1.25;0.10;;;0.80;99.90;;;;;;20667969;28;20170;-43
2021/12/25 07:52:18;;;;;;;0.95;0.47;;;0.60;99.90;;;;;;20663429;28;20060;-44
2021/12/25 08:02:19;;;;;;;0.57;0.30;;;0.50;99.90;;;;;;20669219;28;20449;-43
2021/12/25 08:12:20;;;;;;;0.40;0.22;;;0.40;99.90;;;;;;20646399;28;20128;-43
2021/12/25 08:22:21;;;;;;;1.10;0.40;;;0.20;99.90;;;;;;20647328;28;20037;-43
2021/12/25 08:32:22;;;;;;;1.65;1.17;;;0.20;99.90;;;;;;20642276;28;20038;-44
2021/12/25 08:42:24;;;;;;;0.28;0.15;;;0.10;99.90;;;;;;20651590;28;20053;-43
2021/12/25 08:52:25;;;;;;;0.28;0.20;;;0.10;99.90;;;;;;20653024;28;20041;-44
2021/12/25 09:02:27;;;;;;;1.70;0.52;;;0.00;99.90;;;;;;20648344;28;20034;-43
2021/12/25 09:12:39;;;;;;;0.98;0.32;;;0.10;99.90;;;;;;20657779;28;20046;-44
2021/12/25 09:22:40;;;;;;;2.80;0.50;;;0.10;99.90;;;;;;20668918;28;20044;-43
2021/12/25 09:32:42;;;;;;;2.47;0.45;;;0.30;99.90;;;;;;20664433;28;20050;-44
2021/12/25 09:42:44;;;;;;;1.65;0.52;;;0.30;99.90;;;;;;20659778;28;20491;-44
2021/12/25 09:52:45;;;;;;;0.80;0.40;;;0.50;99.90;;;;;;20666992;28;20081;-44
2021/12/25 10:02:52;;;;;;;0.13;0.10;;;0.50;99.90;;;;;;20681084;28;20041;-44
2021/12/25 10:12:54;;;;;;;0.88;0.25;;;0.50;99.90;;;;;;20678159;28;20049;-44
2021/12/25 10:23:09;;;;;;;0.30;0.10;;;0.70;99.90;;;;;;20681356;28;20057;-44
2021/12/25 10:33:35;;;;;;;0.08;0.03;;;1.00;99.90;;;;;;20699563;28;20052;-43
2021/12/25 10:43:41;;;;;;;0.43;0.10;;;1.10;99.90;;;;;;20699585;28;20044;-44
2021/12/25 10:53:50;;;;;;;0.70;0.30;;;1.30;99.90;;;;;;20697709;28;20290;-44
2021/12/25 11:03:52;;;;;;;0.77;0.15;;;1.70;99.90;;;;;;20703727;28;20054;-45
2021/12/25 11:13:55;;;;;;;0.63;0.20;;;2.10;99.90;;;;;;20699512;28;20042;-43
2021/12/25 11:24:20;;;;;;;2.53;0.20;;;2.60;99.90;;;;;;20671361;28;20045;-44
2021/12/25 11:34:22;;;;;;;0.20;0.10;;;2.60;99.90;;;;;;20644901;28;20055;-43
2021/12/25 11:44:39;;;;;;;0.77;0.20;;;3.00;99.90;;;;;;20653498;28;20046;-43
2021/12/25 12:04:46;;;;;;;1.75;0.28;;;3.40;99.90;;;;;;20667690;28;20082;-44
2021/12/25 12:15:04;;;;;;;0.43;0.20;;;3.80;99.90;;;;;;20676922;28;20046;-43
2021/12/25 12:35:34;;;;;;;0.57;0.20;;;4.10;99.90;;;;;;20676217;28;20434;-44
2021/12/25 12:45:36;;;;;;;0.30;0.10;;;4.30;99.90;;;;;;20682617;28;20038;-44
2021/12/25 12:55:43;;;;;;;2.13;0.25;;;4.50;99.90;;;;;;20675457;28;20125;-44
2021/12/25 13:05:51;;;;;;;0.85;0.20;;;4.50;99.90;;;;;;20669324;28;20038;-44
2021/12/25 13:16:06;;;;;;;1.05;0.28;;;4.40;99.90;;;;;;20677722;28;20049;-44
2021/12/25 13:26:09;;;;;;;1.35;0.38;;;4.00;99.90;;;;;;20672101;28;20041;-43
2021/12/25 13:36:13;;;;;;;1.67;0.38;;;3.80;99.90;;;;;;20673044;28;20034;-44
2021/12/25 13:46:14;;;;;;;0.85;0.30;;;3.00;99.90;;;;;;20669331;28;20042;-43
2021/12/25 13:56:15;;;;;;;0.50;0.13;;;2.70;99.90;;;;;;20670686;28;20631;-43
2021/12/25 14:06:16;;;;;;;0.75;0.15;;;2.20;99.90;;;;;;20669336;28;20054;-43
2021/12/25 14:16:18;;;;;;;0.60;0.20;;;1.90;99.90;;;;;;20647500;28;20054;-43
2021/12/25 14:26:20;;;;;;;3.45;0.50;;;1.80;99.90;;;;;;20662836;28;20090;-44
2021/12/25 14:36:24;;;;;;;0.17;0.10;;;1.60;99.90;;;;;;20670160;28;20526;-43
2021/12/25 14:46:26;;;;;;;0.55;0.20;;;1.40;99.90;;;;;;20655585;28;20033;-44
2021/12/25 14:56:28;;;;;;;1.40;0.30;;;1.50;99.90;;;;;;20663437;28;20057;-43
2021/12/25 15:06:30;;;;;;;0.43;0.20;;;1.30;99.90;;;;;;20665854;28;20520;-43
2021/12/25 15:16:36;;;;;;;5.28;0.40;;;1.00;99.90;;;;;;20677893;28;20057;-43
2021/12/25 15:26:39;;;;;;;2.80;0.95;;;1.00;99.90;;;;;;20681591;28;20042;-44
2021/12/25 15:36:45;;;;;;;1.10;0.38;;;0.90;99.90;;;;;;20684783;28;20053;-44
2021/12/25 15:46:49;;;;;;;1.63;0.40;;;0.90;99.90;;;;;;20691406;28;20038;-44
2021/12/25 15:56:56;;;;;;;0.70;0.40;;;0.60;99.90;;;;;;20685826;28;20445;-44
2021/12/25 16:06:58;;;;;;;1.33;0.50;;;0.60;99.90;;;;;;20678657;28;20048;-44
2021/12/25 16:16:59;;;;;;;9.80;0.50;;;0.50;99.90;;;;;;20685454;28;21395;-44
2021/12/25 16:27:00;;;;;;;0.95;0.30;;;0.40;99.90;;;;;;20690787;28;20046;-44
2021/12/25 16:37:03;;;;;;;0.70;0.32;;;0.30;99.90;;;;;;20688243;28;20034;-44
2021/12/25 16:47:05;;;;;;;2.88;0.85;;;0.30;99.90;;;;;;20688321;28;20045;-47
2021/12/25 16:57:06;;;;;;;1.58;0.70;;;0.10;99.90;;;;;;20699987;28;20072;-44
2021/12/25 17:07:08;;;;;;;1.58;0.68;;;0.10;99.90;;;;;;20692705;28;20075;-44
2021/12/25 17:17:09;;;;;;;2.17;0.75;;;-0.10;99.90;;;;;;20686985;28;20052;-43
2021/12/25 17:27:11;;;;;;;1.95;0.43;;;-0.20;99.90;;;;;;20681586;28;20517;-43
2021/12/25 17:37:12;;;;;;;2.97;0.93;;;-0.20;99.90;;;;;;20685675;28;20040;-44
2021/12/25 17:47:14;;;;;;;0.68;0.40;;;-0.40;99.90;;;;;;20688008;28;20062;-44
2021/12/25 17:57:16;;;;;;;0.82;0.40;;;-0.40;99.90;;;;;;20694267;28;20042;-44
2021/12/25 18:07:17;;;;;;;1.80;0.57;;;-0.40;99.90;;;;;;20694892;28;21960;-44
2021/12/25 18:17:18;;;;;;;2.03;0.50;;;-0.40;99.90;;;;;;20692033;28;20124;-44
2021/12/25 18:27:21;;;;;;;0.75;0.70;;;-0.50;99.90;;;;;;20701780;28;20065;-44
2021/12/25 18:37:22;;;;;;;3.83;1.67;;;-0.50;99.90;;;;;;20687317;28;20928;-43
2021/12/25 18:47:23;;;;;;;2.13;0.65;;;-0.70;99.90;;;;;;20653369;28;20463;-44
2021/12/25 18:57:25;;;;;;;4.28;0.95;;;-0.70;99.90;;;;;;20667707;28;20504;-44
2021/12/25 19:07:26;;;;;;;1.23;0.60;;;-0.90;99.90;;;;;;20667097;28;20414;-43
2021/12/25 19:17:27;;;;;;;0.98;0.50;;;-0.90;99.90;;;;;;20672243;28;20401;-44
2021/12/25 19:27:29;;;;;;;6.35;0.85;;;-1.00;99.90;;;;;;20678014;28;20034;-44
2021/12/25 19:37:30;;;;;;;1.15;0.68;;;-1.10;99.90;;;;;;20680694;28;20038;-44
2021/12/25 19:47:33;;;;;;;0.77;0.30;;;-1.20;99.90;;;;;;20681897;28;20038;-44
2021/12/25 19:57:35;;;;;;;0.55;0.20;;;-1.30;99.90;;;;;;20681530;28;20046;-44
2021/12/25 20:07:44;;;;;;;2.53;0.32;;;-1.20;99.90;;;;;;20679738;28;20092;-44
2021/12/25 20:17:46;;;;;;;0.95;0.30;;;-1.20;99.90;;;;;;20682996;28;20502;-44
2021/12/25 20:27:51;;;;;;;1.60;0.57;;;-1.20;99.90;;;;;;20675408;28;20038;-44
2021/12/25 20:37:57;;;;;;;11.40;4.37;;;-1.30;99.90;;;;;;20679458;28;20042;-43
2021/12/25 20:47:58;;;;;;;3.20;1.07;;;-1.30;99.90;;;;;;20679791;28;20285;-43
2021/12/25 20:58:00;;;;;;;4.57;1.55;;;-1.40;99.90;;;;;;20682100;28;20045;-44
2021/12/25 21:08:02;;;;;;;1.15;0.65;;;-1.40;99.90;;;;;;20684820;28;20107;-44
2021/12/25 21:18:04;;;;;;;2.15;0.82;;;-1.50;99.90;;;;;;20675840;28;20052;-43
2021/12/25 21:28:05;;;;;;;1.27;0.70;;;-1.50;99.90;;;;;;20673477;28;20121;-43
2021/12/25 21:38:08;;;;;;;2.88;0.98;;;-1.60;99.90;;;;;;20672886;28;20038;-44
2021/12/25 21:48:10;;;;;;;5.30;0.60;;;-1.70;99.90;;;;;;20688039;28;20069;-44
2021/12/25 21:58:12;;;;;;;1.98;0.82;;;-1.70;99.90;;;;;;20681741;28;20048;-44
2021/12/25 22:08:15;;;;;;;4.10;1.63;;;-1.70;99.90;;;;;;20681796;28;20046;-43
2021/12/25 22:18:17;;;;;;;1.13;0.73;;;-1.80;99.90;;;;;;20680726;28;20530;-44
2021/12/25 22:28:18;;;;;;;0.90;0.50;;;-1.80;99.90;;;;;;20695255;28;20108;-44
2021/12/25 22:38:19;;;;;;;0.75;0.40;;;-2.00;99.90;;;;;;20699211;28;20113;-44
2021/12/25 22:48:23;;;;;;;0.85;0.30;;;-1.90;99.90;;;;;;20700399;28;20030;-43
2021/12/25 22:58:26;;;;;;;1.40;0.50;;;-2.10;99.90;;;;;;20692281;28;20474;-43
2021/12/25 23:08:33;;;;;;;2.95;0.93;;;-2.00;99.90;;;;;;20688631;28;20054;-44
2021/12/25 23:18:34;;;;;;;3.38;0.57;;;-2.00;99.90;;;;;;20692226;28;20463;-43
2021/12/25 23:28:36;;;;;;;0.57;0.25;;;-2.10;99.90;;;;;;20691914;28;20038;-44
2021/12/25 23:38:42;;;;;;;0.10;0.10;;;-2.10;99.90;;;;;;20690673;28;20049;-43
2021/12/25 23:48:43;;;;;;;0.32;0.10;;;-2.20;99.90;;;;;;20694811;28;20030;-43
2021/12/25 23:58:47;;;;;;;0.60;0.25;;;-2.20;99.90;;;;;;20691350;28;20034;-44
